Time;durP1;ratioP1;P1;durP2;ratioP2;P2;SDS_P1;SDS_P2;PMS_P1;PMS_P2;Temp;Humidity;BMP_temperature;BMP_pressure;BME280_temperature;BME280_humidity;BME280_pressure;Samples;Min_cycle;Max_cycle;Signal;HPM_P1;HPM_P2
2022/07/09 00:01:32;;;;;;;23.55;5.60;;;;;;;15.74;72.42;102348.69;4957589;28;20038;-77
2022/07/09 00:04:15;;;;;;;24.80;6.00;;;;;;;15.72;72.42;102346.13;4956713;28;20046;-78
2022/07/09 00:06:49;;;;;;;20.80;6.07;;;;;;;15.69;72.78;102348.31;4960524;28;20386;-78
2022/07/09 00:09:21;;;;;;;34.63;6.95;;;;;;;15.65;72.69;102344.19;4981180;28;20033;-78
2022/07/09 00:11:58;;;;;;;;;;;;;;;15.75;72.54;102339.50;4978145;28;20027;-77
2022/07/09 00:14:29;;;;;;;23.55;6.55;;;;;;;15.61;72.79;102337.28;4957104;28;19917;-78
2022/07/09 00:17:05;;;;;;;;;;;;;;;15.72;72.60;102337.09;4972093;28;20027;-76
2022/07/09 00:19:33;;;;;;;25.23;6.13;;;;;;;15.74;72.46;102324.13;4981645;28;19945;-78
2022/07/09 00:22:05;;;;;;;26.67;5.90;;;;;;;15.66;72.97;102318.59;4978845;28;20027;-77
2022/07/09 00:24:46;;;;;;;;;;;;;;;;;;;;;
2022/07/09 00:27:29;;;;;;;24.20;6.13;;;;;;;15.62;73.30;102319.91;4949777;28;20023;-78
2022/07/09 00:30:15;;;;;;;36.60;8.15;;;;;;;15.56;73.47;102324.09;4967624;28;20023;-79
2022/07/09 00:32:40;;;;;;;32.75;6.80;;;;;;;15.45;73.79;102324.31;4962669;28;20492;-78
2022/07/09 00:35:10;;;;;;;29.38;7.30;;;;;;;15.32;74.59;102316.53;4955806;28;20042;-78
2022/07/09 00:37:35;;;;;;;34.72;6.93;;;;;;;15.47;74.12;102314.97;4977115;28;20034;-77
2022/07/09 00:40:15;;;;;;;28.98;6.45;;;;;;;15.37;74.43;102314.16;4962916;28;20102;-78
2022/07/09 00:42:41;;;;;;;30.35;6.35;;;;;;;15.52;74.39;102319.06;4965334;28;20023;-78
2022/07/09 00:45:18;;;;;;;23.27;5.90;;;;;;;15.61;73.56;102299.91;4970987;28;20019;-78
2022/07/09 00:47:44;;;;;;;25.33;6.20;;;;;;;15.57;73.80;102303.09;4969560;28;20090;-78
2022/07/09 00:50:44;;;;;;;24.55;6.15;;;;;;;15.57;74.13;102303.09;4981409;28;20122;-78
2022/07/09 00:53:25;;;;;;;28.00;5.93;;;;;;;15.52;73.60;102310.88;4985193;28;20026;-77
2022/07/09 00:55:55;;;;;;;33.97;7.15;;;;;;;15.61;74.10;102309.97;4967073;28;20027;-78
2022/07/09 00:58:29;;;;;;;21.58;5.70;;;;;;;15.67;74.08;102309.38;4985883;28;20019;-77
2022/07/09 01:00:58;;;;;;;30.73;6.90;;;;;;;15.48;74.44;102300.28;4985189;28;20046;-78
2022/07/09 01:03:45;;;;;;;23.02;7.00;;;;;;;15.52;74.56;102305.44;4973297;28;20028;-77
2022/07/09 01:06:34;;;;;;;29.65;7.95;;;;;;;15.55;74.41;102305.13;4983219;28;20103;-77
2022/07/09 01:09:14;;;;;;;;;;;;;;;;;;;;;
2022/07/09 01:12:09;;;;;;;26.77;6.47;;;;;;;15.58;74.66;102286.56;4972410;28;20039;-78
2022/07/09 01:14:41;;;;;;;21.08;5.88;;;;;;;15.56;74.30;102293.19;4943179;29;20110;-78
2022/07/09 01:17:15;;;;;;;28.48;6.35;;;;;;;15.45;75.05;102295.16;4961184;28;20058;-76
2022/07/09 01:19:59;;;;;;;;;;;;;;;;;;;;;
2022/07/09 01:22:45;;;;;;;;;;;;;;;;;;;;;
2022/07/09 01:25:41;;;;;;;33.72;6.80;;;;;;;15.56;74.59;102290.47;4974138;28;20047;-78
2022/07/09 01:28:13;;;;;;;32.53;6.68;;;;;;;15.66;74.33;102296.75;4964685;28;20023;-78
2022/07/09 01:30:54;;;;;;;27.40;7.18;;;;;;;15.70;74.46;102287.22;4968612;28;20037;-78
2022/07/09 01:34:26;;;;;;;;;;;;;;;;;;;;;
2022/07/09 01:37:37;;;;;;;30.58;7.00;;;;;;;15.82;73.88;102285.94;4963894;28;20576;-78
2022/07/09 01:40:09;;;;;;;25.48;6.72;;;;;;;15.81;73.77;102284.25;4941728;28;20039;-78
2022/07/09 01:42:34;;;;;;;35.65;6.53;;;;;;;15.74;74.34;102283.16;4965498;28;20030;-78
2022/07/09 01:45:10;;;;;;;33.03;6.97;;;;;;;15.68;74.41;102281.06;4974510;28;20023;-78
2022/07/09 01:47:45;;;;;;;32.30;7.03;;;;;;;15.62;74.88;102274.34;4969341;28;20049;-77
2022/07/09 01:54:04;;;;;;;25.30;6.57;;;;;;;15.55;75.36;102266.91;4962699;28;20035;-78
2022/07/09 01:56:30;;;;;;;23.92;6.65;;;;;;;15.71;74.66;102261.59;4970377;28;20031;-78
2022/07/09 01:59:03;;;;;;;25.30;7.03;;;;;;;15.84;74.10;102259.31;4977779;28;20038;-78
2022/07/09 02:01:32;;;;;;;40.90;10.20;;;;;;;15.66;75.05;102253.06;4961516;28;20019;-78
2022/07/09 02:04:01;;;;;;;28.02;7.22;;;;;;;15.57;75.14;102253.97;4958096;28;20027;-78
2022/07/09 02:06:26;;;;;;;34.67;6.32;;;;;;;15.58;74.99;102255.66;4965661;28;20054;-78
2022/07/09 02:08:54;;;;;;;31.08;6.85;;;;;;;15.54;75.32;102251.56;4961764;28;20074;-77
2022/07/09 02:11:28;;;;;;;32.63;6.32;;;;;;;15.59;75.41;102247.34;4971227;28;20022;-78
2022/07/09 02:14:02;;;;;;;21.77;6.25;;;;;;;15.73;75.21;102248.69;4964969;28;20019;-78
2022/07/09 02:16:51;;;;;;;29.42;7.13;;;;;;;15.55;75.68;102245.06;4960971;28;20035;-78
2022/07/09 02:19:16;;;;;;;34.17;7.95;;;;;;;15.66;75.29;102244.88;4954109;28;20023;-77
2022/07/09 02:21:54;;;;;;;28.65;6.60;;;;;;;15.39;76.36;102246.66;4954832;28;20110;-78
2022/07/09 02:24:22;;;;;;;37.42;7.55;;;;;;;15.63;75.54;102236.97;4973762;28;20019;-78
2022/07/09 02:27:20;;;;;;;34.25;6.93;;;;;;;15.60;75.91;102237.28;4973608;28;20031;-77
2022/07/09 02:32:13;;;;;;;33.85;7.80;;;;;;;15.64;75.62;102228.63;5043205;28;20102;-74
2022/07/09 02:34:39;;;;;;;27.27;6.97;;;;;;;15.42;76.16;102229.94;5028783;28;20424;-74
2022/07/09 02:37:05;;;;;;;27.95;6.63;;;;;;;15.51;76.09;102228.13;5029315;28;20021;-74
2022/07/09 02:39:31;;;;;;;34.45;8.07;;;;;;;15.57;76.18;102232.13;5028998;28;20025;-75
2022/07/09 02:41:56;;;;;;;28.98;6.40;;;;;;;15.56;76.17;102241.31;5028866;28;20039;-74
2022/07/09 02:44:21;;;;;;;33.33;7.45;;;;;;;15.57;76.45;102230.25;5028399;28;20052;-74
2022/07/09 02:46:47;;;;;;;23.45;6.72;;;;;;;15.70;75.75;102227.13;5028092;28;20029;-75
2022/07/09 02:49:12;;;;;;;25.17;6.28;;;;;;;15.67;75.60;102227.47;5029371;28;20048;-74
2022/07/09 02:51:37;;;;;;;31.60;6.43;;;;;;;15.86;74.94;102224.53;5028314;28;20033;-74
2022/07/09 02:54:04;;;;;;;29.60;6.78;;;;;;;15.74;75.51;102234.00;5029162;28;20021;-74
2022/07/09 02:56:29;;;;;;;26.80;6.55;;;;;;;15.51;76.84;102224.56;5028054;28;20044;-74
2022/07/09 02:58:55;;;;;;;26.60;5.70;;;;;;;15.68;76.29;102237.38;5045505;28;20025;-73
2022/07/09 03:01:20;;;;;;;36.40;7.82;;;;;;;15.28;77.75;102226.91;5028927;28;20022;-74
2022/07/09 03:03:46;;;;;;;24.25;7.05;;;;;;;15.39;77.54;102223.97;5028267;28;20095;-74
2022/07/09 03:06:12;;;;;;;25.20;6.03;;;;;;;15.70;76.34;102227.13;5046686;28;20025;-75
2022/07/09 03:08:38;;;;;;;27.15;6.22;;;;;;;15.53;76.82;102230.72;5028398;28;20036;-74
2022/07/09 03:11:06;;;;;;;28.83;7.13;;;;;;;15.53;77.26;102225.28;5027786;28;20025;-74
2022/07/09 03:13:32;;;;;;;42.22;7.22;;;;;;;15.57;76.89;102232.13;5028839;28;20021;-74
2022/07/09 03:15:58;;;;;;;28.15;7.05;;;;;;;15.51;77.18;102217.22;5028321;28;20021;-75
2022/07/09 03:18:23;;;;;;;27.85;5.75;;;;;;;15.55;77.04;102223.22;5028134;28;20035;-74
2022/07/09 03:20:48;;;;;;;27.95;7.05;;;;;;;15.61;77.27;102212.53;5029110;28;20090;-74
2022/07/09 03:23:14;;;;;;;31.85;7.18;;;;;;;15.64;77.99;102211.38;5027833;28;20035;-74
2022/07/09 03:25:39;;;;;;;20.20;5.88;;;;;;;15.73;77.37;102199.53;5029058;28;20111;-75
2022/07/09 03:28:05;;;;;;;39.33;6.90;;;;;;;15.55;78.24;102196.78;5027454;28;20021;-75
2022/07/09 03:30:30;;;;;;;28.25;6.68;;;;;;;15.55;78.58;102195.94;5027812;28;20036;-74
2022/07/09 03:32:56;;;;;;;32.85;6.50;;;;;;;15.52;78.50;102190.78;5029295;28;20035;-74
2022/07/09 03:35:21;;;;;;;34.60;7.13;;;;;;;15.48;79.31;102185.66;5025978;28;20119;-74
2022/07/09 03:37:47;;;;;;;29.85;7.03;;;;;;;15.35;79.57;102190.66;5026622;28;20017;-74
2022/07/09 03:40:12;;;;;;;35.92;7.50;;;;;;;15.24;79.94;102188.16;5025966;28;20087;-74
2022/07/09 03:42:38;;;;;;;29.67;6.72;;;;;;;15.31;79.80;102183.78;5026185;28;20279;-74
2022/07/09 03:45:06;;;;;;;33.17;8.30;;;;;;;15.36;79.55;102183.31;5045114;28;20094;-75
2022/07/09 03:47:32;;;;;;;30.10;8.43;;;;;;;15.27;80.20;102185.13;5026162;28;20101;-75
2022/07/09 03:49:57;;;;;;;24.95;7.60;;;;;;;15.02;81.38;102177.72;5026454;28;20025;-75
2022/07/09 03:52:23;;;;;;;22.15;6.93;;;;;;;15.25;80.55;102189.88;5026541;28;20017;-75
2022/07/09 03:54:49;;;;;;;22.83;8.43;;;;;;;15.12;80.83;102183.94;5025742;28;20025;-74
2022/07/09 03:57:14;;;;;;;24.35;7.63;;;;;;;15.20;80.74;102175.84;5028468;28;20477;-74
2022/07/09 03:59:39;;;;;;;35.65;8.63;;;;;;;14.84;82.05;102167.66;5029841;28;20032;-73
2022/07/09 04:02:05;;;;;;;41.70;9.50;;;;;;;15.05;81.22;102169.22;5048003;28;20081;-73
2022/07/09 04:04:31;;;;;;;33.53;7.85;;;;;;;15.07;81.09;102169.94;5029943;28;20029;-73
2022/07/09 04:06:57;;;;;;;35.38;8.32;;;;;;;15.26;80.82;102168.88;5029104;28;20043;-73
2022/07/09 04:09:22;;;;;;;39.05;8.48;;;;;;;15.41;79.80;102162.72;5030433;28;20032;-73
2022/07/09 04:11:47;;;;;;;27.17;7.40;;;;;;;15.38;79.67;102167.63;5047098;28;20024;-73
2022/07/09 04:14:14;;;;;;;28.17;8.32;;;;;;;15.54;79.47;102166.91;5046912;28;20021;-73
2022/07/09 04:16:40;;;;;;;27.80;7.47;;;;;;;15.46;79.27;102159.53;5029425;28;20031;-73
2022/07/09 04:19:06;;;;;;;22.02;8.23;;;;;;;15.24;80.13;102188.16;5046709;28;20052;-73
2022/07/09 04:21:31;;;;;;;25.98;8.15;;;;;;;15.38;80.20;102171.22;5029969;28;20067;-73
2022/07/09 04:23:56;;;;;;;21.63;8.20;;;;;;;15.60;79.25;102160.81;5046992;28;20029;-73
2022/07/09 04:26:23;;;;;;;27.90;8.55;;;;;;;15.42;79.75;102158.97;5029110;28;20021;-73
2022/07/09 04:28:49;;;;;;;20.40;7.30;;;;;;;15.34;80.15;102167.09;5030229;28;20246;-73
2022/07/09 04:31:15;;;;;;;29.02;7.53;;;;;;;15.59;79.71;102164.56;5029217;28;20118;-73
2022/07/09 04:33:44;;;;;;;23.75;8.05;;;;;;;15.28;80.25;102183.25;5029931;28;20025;-73
2022/07/09 04:36:10;;;;;;;28.77;7.78;;;;;;;15.66;79.29;102165.69;5029603;28;20052;-74
2022/07/09 04:38:35;;;;;;;26.15;7.93;;;;;;;15.68;78.88;102163.63;5028625;28;20024;-74
2022/07/09 04:41:01;;;;;;;20.27;6.53;;;;;;;15.69;79.53;102170.81;5029647;28;20033;-73
2022/07/09 04:43:26;;;;;;;20.65;6.25;;;;;;;15.80;78.76;102162.34;5029386;28;20060;-73
2022/07/09 04:45:52;;;;;;;23.90;7.28;;;;;;;15.64;79.50;102162.22;5029410;28;20102;-74
2022/07/09 04:48:17;;;;;;;24.70;7.30;;;;;;;15.73;79.14;102162.16;5047773;28;20063;-74
2022/07/09 04:50:43;;;;;;;27.08;7.07;;;;;;;15.59;79.51;102159.13;5046671;28;20037;-74
2022/07/09 04:53:08;;;;;;;21.48;6.50;;;;;;;15.71;79.39;102157.84;5029661;28;20021;-74
2022/07/09 04:55:33;;;;;;;17.65;6.00;;;;;;;15.90;78.53;102157.63;5029103;28;20037;-74
2022/07/09 04:57:59;;;;;;;24.80;6.45;;;;;;;16.01;78.02;102154.63;5046854;28;20120;-74
2022/07/09 05:00:24;;;;;;;24.30;6.25;;;;;;;15.81;78.77;102152.28;5029695;28;20060;-74
2022/07/09 05:02:49;;;;;;;23.27;6.22;;;;;;;15.71;79.54;102160.56;5028347;28;20049;-74
2022/07/09 05:05:15;;;;;;;26.60;5.82;;;;;;;15.86;78.76;102150.78;5030944;28;20047;-74
2022/07/09 05:07:44;;;;;;;28.13;6.68;;;;;;;15.77;79.29;102157.19;5029667;28;20025;-75
2022/07/09 05:10:09;;;;;;;20.73;5.80;;;;;;;15.90;79.03;102157.63;5028836;28;20025;-74
2022/07/09 05:12:35;;;;;;;17.88;6.35;;;;;;;16.01;78.69;102154.63;5030198;28;20029;-74
2022/07/09 05:15:00;;;;;;;28.30;6.25;;;;;;;16.15;78.06;102149.56;5029499;28;20088;-74
2022/07/09 05:17:26;;;;;;;17.08;5.88;;;;;;;16.11;78.60;102148.19;5048073;28;20048;-73
2022/07/09 05:19:51;;;;;;;17.38;4.70;;;;;;;16.12;78.90;102133.50;5030866;28;20036;-73
2022/07/09 05:22:17;;;;;;;13.77;4.60;;;;;;;16.19;78.18;102146.34;5029390;28;20078;-73
2022/07/09 05:24:43;;;;;;;18.10;5.30;;;;;;;16.22;77.97;102142.41;5030316;28;20029;-74
2022/07/09 05:27:09;;;;;;;12.27;4.25;;;;;;;16.14;78.44;102136.94;5029423;28;20025;-73
2022/07/09 05:29:35;;;;;;;11.45;4.35;;;;;;;16.31;77.88;102146.91;5047623;28;20025;-73
2022/07/09 05:32:01;;;;;;;14.50;4.13;;;;;;;16.40;77.47;102154.13;5029666;28;20112;-75
2022/07/09 05:34:27;;;;;;;11.52;3.92;;;;;;;16.15;78.50;102157.75;5049317;28;20089;-74
2022/07/09 05:36:52;;;;;;;12.52;4.05;;;;;;;16.07;79.28;102142.19;5037593;28;20027;-75
2022/07/09 05:39:18;;;;;;;20.73;4.25;;;;;;;16.10;78.85;102146.47;5046428;28;20017;-75
2022/07/09 05:41:44;;;;;;;18.17;4.82;;;;;;;16.24;78.34;102148.59;5047553;28;20041;-75
2022/07/09 05:44:09;;;;;;;19.70;4.72;;;;;;;16.12;78.68;102138.97;5045382;28;20017;-75
2022/07/09 05:46:35;;;;;;;18.73;4.75;;;;;;;16.31;78.09;102133.25;5047441;28;20021;-75
2022/07/09 05:49:02;;;;;;;12.70;4.45;;;;;;;16.32;77.80;102134.09;5030304;28;20048;-75
2022/07/09 05:51:28;;;;;;;16.48;4.07;;;;;;;16.28;78.55;102139.03;5025834;28;20056;-75
2022/07/09 05:53:53;;;;;;;20.10;5.20;;;;;;;16.37;78.08;102132.59;5035041;28;20068;-75
2022/07/09 05:56:19;;;;;;;20.15;5.05;;;;;;;16.51;77.75;102140.16;5029405;28;20033;-74
2022/07/09 05:58:44;;;;;;;10.90;3.90;;;;;;;16.33;78.36;102142.13;5035655;28;20021;-75
2022/07/09 06:01:11;;;;;;;15.32;4.72;;;;;;;16.44;78.11;102133.63;5034333;28;20047;-75
2022/07/09 06:03:36;;;;;;;16.85;4.40;;;;;;;16.21;78.94;102137.97;5027483;28;20025;-76
2022/07/09 06:06:02;;;;;;;18.15;5.15;;;;;;;16.47;78.19;102135.16;5053025;28;20071;-76
2022/07/09 06:08:27;;;;;;;20.30;4.85;;;;;;;16.51;77.82;102134.69;5038683;28;20020;-76
2022/07/09 06:10:53;;;;;;;18.85;4.25;;;;;;;16.68;77.41;102129.25;5037467;28;20028;-76
2022/07/09 06:13:18;;;;;;;14.07;4.10;;;;;;;16.66;77.27;102128.56;5027293;28;20020;-76
2022/07/09 06:15:43;;;;;;;21.05;4.82;;;;;;;16.55;77.94;102130.56;5031345;28;20140;-76
2022/07/09 06:18:09;;;;;;;21.00;5.82;;;;;;;16.44;78.52;102122.69;5029380;28;20021;-76
2022/07/09 06:20:34;;;;;;;12.45;5.07;;;;;;;16.48;78.63;102134.16;5045389;28;20081;-76
2022/07/09 06:22:59;;;;;;;18.75;5.00;;;;;;;16.18;79.98;102116.47;5024823;28;20056;-76
2022/07/09 06:25:25;;;;;;;18.17;4.47;;;;;;;16.33;79.71;102122.16;5024799;28;20022;-76
2022/07/09 06:27:50;;;;;;;16.98;4.63;;;;;;;16.43;79.63;102126.47;5027395;28;20032;-76
2022/07/09 06:30:15;;;;;;;15.63;4.53;;;;;;;16.78;78.40;102113.56;5025047;28;20021;-77
2022/07/09 06:32:41;;;;;;;12.82;4.72;;;;;;;16.70;78.32;102110.84;5028979;28;20112;-73
2022/07/09 06:35:07;;;;;;;18.27;5.90;;;;;;;16.58;78.56;102112.13;5047411;28;20148;-73
2022/07/09 06:37:32;;;;;;;19.90;5.80;;;;;;;16.52;78.49;102114.50;5025027;28;20083;-71
2022/07/09 06:39:59;;;;;;;10.70;4.10;;;;;;;16.58;78.40;102123.06;5045974;28;20017;-69
2022/07/09 06:42:25;;;;;;;12.52;3.90;;;;;;;16.71;77.69;102123.47;5039636;28;20017;-72
2022/07/09 06:44:50;;;;;;;14.55;4.70;;;;;;;16.88;77.39;102130.66;5019442;28;20123;-72
2022/07/09 06:47:16;;;;;;;15.05;4.45;;;;;;;16.90;76.93;102125.91;5038070;28;20131;-71
2022/07/09 06:49:41;;;;;;;14.27;4.25;;;;;;;16.88;76.98;102114.25;5038160;28;20017;-71
2022/07/09 06:52:07;;;;;;;11.32;4.25;;;;;;;16.85;77.00;102125.56;5013647;28;20029;-71
2022/07/09 06:54:33;;;;;;;14.02;4.07;;;;;;;17.18;75.77;102120.09;5016074;28;20039;-71
2022/07/09 06:56:59;;;;;;;16.77;4.35;;;;;;;17.00;76.30;102123.84;5020576;28;20025;-72
2022/07/09 06:59:24;;;;;;;11.93;3.90;;;;;;;17.07;75.93;102121.28;5028652;28;20373;-71
2022/07/09 07:01:50;;;;;;;17.45;4.22;;;;;;;17.26;75.66;102111.88;5016963;28;20028;-71
2022/07/09 07:04:16;;;;;;;11.32;4.25;;;;;;;17.37;75.03;102114.28;5021504;28;21355;-71
2022/07/09 07:06:42;;;;;;;11.57;3.83;;;;;;;17.30;74.97;102107.78;5027584;28;20025;-71
2022/07/09 07:09:08;;;;;;;10.50;3.55;;;;;;;17.57;73.95;102110.13;5040484;28;20029;-71
2022/07/09 07:11:33;;;;;;;10.93;3.50;;;;;;;17.60;74.33;102109.81;5020107;28;20017;-71
2022/07/09 07:13:59;;;;;;;14.52;3.80;;;;;;;17.64;73.89;102108.41;5020157;28;20029;-71
2022/07/09 07:16:24;;;;;;;14.50;3.78;;;;;;;17.18;75.48;102103.69;5022569;28;20030;-71
2022/07/09 07:18:49;;;;;;;12.10;3.65;;;;;;;17.32;74.91;102105.72;5038923;28;20104;-71
2022/07/09 07:21:15;;;;;;;11.65;4.45;;;;;;;17.23;75.49;102106.75;5025085;28;20022;-72
2022/07/09 07:23:40;;;;;;;11.85;4.00;;;;;;;17.45;74.84;102105.19;5028407;28;20087;-72
2022/07/09 07:26:05;;;;;;;12.48;3.38;;;;;;;17.56;73.62;102113.91;5039803;28;20030;-74
2022/07/09 07:28:31;;;;;;;8.20;3.50;;;;;;;17.45;74.36;102106.03;5023445;28;20040;-72
2022/07/09 07:30:56;;;;;;;11.25;3.78;;;;;;;17.48;73.89;102100.22;5033281;28;20033;-72
2022/07/09 07:33:22;;;;;;;12.23;3.50;;;;;;;17.91;72.97;102100.81;5023952;28;20052;-75
2022/07/09 07:35:47;;;;;;;11.63;3.20;;;;;;;17.94;72.51;102100.50;5029794;28;20029;-73
2022/07/09 07:38:13;;;;;;;6.93;2.95;;;;;;;17.75;73.39;102106.38;5036827;28;20020;-73
2022/07/09 07:40:38;;;;;;;10.40;3.42;;;;;;;17.56;74.31;102102.94;5052761;28;20025;-72
2022/07/09 07:43:04;;;;;;;12.27;3.47;;;;;;;17.60;74.10;102098.84;5049906;28;20053;-73
2022/07/09 07:45:30;;;;;;;10.38;3.53;;;;;;;17.39;74.65;102111.34;5024924;28;20116;-73
2022/07/09 07:47:56;;;;;;;11.15;3.38;;;;;;;17.56;74.50;102097.47;5045714;28;20025;-74
2022/07/09 07:50:22;;;;;;;24.25;4.30;;;;;;;17.63;73.97;102093.00;5053889;28;20485;-73
2022/07/09 07:52:48;;;;;;;11.43;3.80;;;;;;;17.62;73.51;102091.28;5059125;28;20017;-73
2022/07/09 07:55:13;;;;;;;10.82;3.17;;;;;;;17.78;72.84;102095.91;5037140;28;20029;-72
2022/07/09 07:57:39;;;;;;;11.55;2.88;;;;;;;18.07;72.04;102089.81;5050297;28;20020;-73
2022/07/09 08:00:05;;;;;;;13.93;2.97;;;;;;;18.67;70.00;102089.16;5033619;28;20029;-73
2022/07/09 08:02:30;;;;;;;11.07;2.95;;;;;;;18.68;69.66;102082.63;5033560;28;20017;-74
2022/07/09 08:04:57;;;;;;;10.45;2.33;;;;;;;18.66;69.88;102073.75;5048183;28;20055;-72
2022/07/09 08:07:22;;;;;;;6.80;2.30;;;;;;;18.47;69.92;102074.19;5050370;28;20024;-71
2022/07/09 08:09:47;;;;;;;10.35;2.88;;;;;;;18.43;69.96;102083.78;5043419;28;20027;-73
2022/07/09 08:12:13;;;;;;;13.00;2.83;;;;;;;18.84;68.90;102076.16;5031246;28;20111;-73
2022/07/09 08:14:38;;;;;;;16.20;2.97;;;;;;;19.14;66.84;102077.13;5049030;28;20021;-71
2022/07/09 08:17:04;;;;;;;8.50;2.33;;;;;;;18.83;67.28;102081.84;5033565;28;20056;-71
2022/07/09 08:19:29;;;;;;;9.82;2.50;;;;;;;18.96;67.30;102079.34;5032905;28;20042;-71
2022/07/09 08:21:54;;;;;;;10.80;2.60;;;;;;;18.72;67.71;102093.25;5031665;28;20082;-71
2022/07/09 08:24:20;;;;;;;10.07;2.35;;;;;;;18.44;68.88;102074.53;5028895;28;20025;-71
2022/07/09 08:26:45;;;;;;;8.38;2.75;;;;;;;18.52;69.64;102077.25;5038684;28;20028;-70
2022/07/09 08:29:10;;;;;;;15.43;3.75;;;;;;;18.22;70.80;102080.84;5062309;23;20068;-72
2022/07/09 08:31:36;;;;;;;9.15;2.92;;;;;;;18.08;71.74;102074.22;5025794;28;20079;-71
2022/07/09 08:34:01;;;;;;;9.55;2.97;;;;;;;18.15;71.09;102081.53;5044987;28;20025;-72
2022/07/09 08:36:27;;;;;;;10.85;2.60;;;;;;;18.14;70.47;102088.06;5025980;28;20029;-69
2022/07/09 08:38:52;;;;;;;7.38;2.35;;;;;;;18.35;70.54;102070.13;5026826;28;20090;-67
2022/07/09 08:41:19;;;;;;;13.70;2.92;;;;;;;18.45;69.99;102076.22;5027852;28;20123;-71
2022/07/09 08:43:49;;;;;;;8.07;2.70;;;;;;;18.54;68.89;102075.16;5045007;28;20029;-70
2022/07/09 08:46:15;;;;;;;8.63;2.08;;;;;;;18.73;68.94;102067.53;5031053;28;20122;-69
2022/07/09 08:48:43;;;;;;;10.60;2.53;;;;;;;19.08;67.61;102066.03;5066058;28;20055;-70
2022/07/09 08:51:09;;;;;;;5.88;2.35;;;;;;;19.42;66.33;102051.78;5047088;28;20020;-70
2022/07/09 08:53:43;;;;;;;10.40;2.65;;;;;;;19.36;66.27;102058.03;5066225;28;20012;-69
2022/07/09 08:56:10;;;;;;;6.57;2.13;;;;;;;19.03;66.71;102072.06;5048403;28;20059;-69
2022/07/09 08:58:37;;;;;;;7.25;2.10;;;;;;;19.27;65.16;102070.16;5047717;28;20025;-72
2022/07/09 09:01:04;;;;;;;9.80;1.80;;;;;;;19.50;64.90;102059.97;5047024;28;20416;-68
2022/07/09 09:03:29;;;;;;;13.15;2.42;;;;;;;19.42;65.11;102073.75;5066197;28;20021;-70
2022/07/09 09:06:02;;;;;;;6.63;2.55;;;;;;;19.69;65.06;102075.94;5047249;28;20031;-71
2022/07/09 09:08:32;;;;;;;6.55;1.98;;;;;;;19.95;62.66;102058.06;5046856;28;20496;-71
2022/07/09 09:10:57;;;;;;;4.22;1.55;;;;;;;20.56;61.44;102061.41;5065799;28;20149;-69
2022/07/09 09:13:23;;;;;;;6.82;2.00;;;;;;;20.10;62.53;102050.69;5048200;28;20067;-71
2022/07/09 09:15:48;;;;;;;6.97;1.83;;;;;;;20.48;60.05;102053.28;5065221;28;20033;-71
2022/07/09 09:18:13;;;;;;;9.95;1.95;;;;;;;20.73;59.83;102032.53;5048439;28;20025;-71
2022/07/09 09:20:45;;;;;;;8.68;1.55;;;;;;;20.69;58.85;102050.53;5047110;28;20025;-70
2022/07/09 09:23:16;;;;;;;4.13;1.75;;;;;;;20.50;59.74;102051.16;5047372;28;20064;-69
2022/07/09 09:25:41;;;;;;;7.20;1.75;;;;;;;20.69;56.82;102049.69;5065990;28;20017;-69
2022/07/09 09:28:07;;;;;;;3.97;1.65;;;;;;;21.11;55.93;102059.78;5066297;28;20021;-69
2022/07/09 09:30:40;;;;;;;10.60;1.90;;;;;;;21.05;56.21;102046.81;5066496;28;20035;-72
2022/07/09 09:33:05;;;;;;;5.72;1.58;;;;;;;21.65;55.19;102039.88;5048943;28;20024;-71
2022/07/09 09:35:33;;;;;;;8.57;1.67;;;;;;;21.95;55.10;102038.53;5048942;28;20025;-70
2022/07/09 09:37:59;;;;;;;7.03;1.65;;;;;;;21.19;54.71;102051.41;5048538;28;20404;-71
2022/07/09 09:40:25;;;;;;;4.70;1.67;;;;;;;20.41;55.89;102057.78;5049316;28;20021;-68
2022/07/09 09:42:52;;;;;;;4.43;1.77;;;;;;;20.74;56.37;102031.53;5048706;28;20025;-71
2022/07/09 09:45:18;;;;;;;9.60;3.03;;;;;;;21.19;54.37;102045.91;5048547;28;20016;-71
2022/07/09 09:47:47;;;;;;;10.85;2.35;;;;;;;20.94;55.63;102036.38;5042124;28;20048;-70
2022/07/09 09:50:24;;;;;;;8.90;2.47;;;;;;;21.44;55.49;102026.16;5025560;28;20033;-71
2022/07/09 09:52:51;;;;;;;6.70;1.85;;;;;;;21.97;53.65;102019.03;5025296;28;20359;-71
2022/07/09 09:55:18;;;;;;;4.72;1.75;;;;;;;21.75;54.01;102032.09;5023705;28;20121;-68
2022/07/09 09:57:44;;;;;;;5.32;1.60;;;;;;;20.96;56.21;102028.75;5025674;28;20037;-72
2022/07/09 10:00:14;;;;;;;6.68;1.73;;;;;;;21.27;54.39;102026.47;5023736;28;20021;-70
2022/07/09 10:02:45;;;;;;;6.32;1.90;;;;;;;21.34;53.43;102032.03;5025882;28;20052;-70
2022/07/09 10:05:10;;;;;;;4.30;1.25;;;;;;;21.30;52.79;102015.06;5027090;28;20052;-70
2022/07/09 10:07:36;;;;;;;4.45;1.45;;;;;;;21.95;51.43;102008.19;5030937;28;20064;-69
2022/07/09 10:10:05;;;;;;;7.75;1.63;;;;;;;21.95;50.84;102010.97;5030942;28;20124;-72
2022/07/09 10:12:34;;;;;;;4.35;1.50;;;;;;;22.09;51.08;102020.16;5030260;28;20033;-69
2022/07/09 10:15:00;;;;;;;8.20;1.90;;;;;;;22.36;50.54;102010.06;5038521;28;20027;-71
2022/07/09 10:17:26;;;;;;;3.40;1.50;;;;;;;21.65;53.88;102028.88;5053559;28;20024;-71
2022/07/09 10:19:57;;;;;;;5.63;2.03;;;;;;;21.13;55.64;102019.16;5052848;28;20024;-71
2022/07/09 10:22:44;;;;;;;9.73;1.77;;;;;;;20.46;56.26;102030.59;5034152;28;20036;-69
2022/07/09 10:25:11;;;;;;;9.60;1.60;;;;;;;20.37;55.41;102035.34;5033134;28;20048;-69
2022/07/09 10:27:45;;;;;;;7.97;1.85;;;;;;;20.42;55.81;102016.34;5032337;28;20025;-71
2022/07/09 10:30:28;;;;;;;5.50;1.50;;;;;;;20.70;55.57;102029.34;5032301;28;20025;-71
2022/07/09 10:33:08;;;;;;;8.10;1.60;;;;;;;20.94;56.20;102025.34;5032801;28;20037;-71
2022/07/09 10:35:43;;;;;;;6.35;1.63;;;;;;;20.46;56.65;102023.19;5032185;28;20027;-71
2022/07/09 10:38:09;;;;;;;4.93;1.55;;;;;;;20.45;57.37;102026.13;5049820;28;20031;-71
2022/07/09 10:40:42;;;;;;;6.68;1.63;;;;;;;20.47;57.83;102018.53;5032291;28;20059;-71
2022/07/09 10:43:08;;;;;;;5.55;1.88;;;;;;;21.77;54.43;102020.84;5050016;28;20056;-72
2022/07/09 10:45:34;;;;;;;5.65;1.70;;;;;;;21.91;53.39;102029.00;5032212;28;20025;-71
2022/07/09 10:48:02;;;;;;;6.53;2.05;;;;;;;21.19;55.36;102012.84;5049843;28;20036;-71
2022/07/09 10:50:30;;;;;;;6.68;1.95;;;;;;;21.36;55.20;102003.22;5031794;28;20025;-71
2022/07/09 10:52:56;;;;;;;4.93;1.27;;;;;;;21.01;53.36;102012.47;5031836;28;20029;-70
2022/07/09 10:55:26;;;;;;;5.43;1.33;;;;;;;20.98;53.16;102015.63;5032161;28;20032;-71
2022/07/09 10:57:53;;;;;;;4.95;1.33;;;;;;;21.09;52.59;102002.16;5031816;28;20111;-71
2022/07/09 11:00:23;;;;;;;6.53;1.42;;;;;;;21.23;52.95;102013.28;5031990;28;20021;-71
2022/07/09 11:02:54;;;;;;;5.43;1.95;;;;;;;20.97;54.06;102013.91;5031876;28;20025;-72
2022/07/09 11:05:20;;;;;;;7.53;1.50;;;;;;;20.93;55.06;102012.59;5031621;28;20106;-71
2022/07/09 11:08:00;;;;;;;27.50;2.20;;;;;;;21.51;54.51;102010.50;5034822;28;20063;-73
2022/07/09 11:10:27;;;;;;;9.38;1.95;;;;;;;21.72;53.50;102018.72;5036134;28;20028;-72
2022/07/09 11:12:54;;;;;;;4.78;1.35;;;;;;;21.36;53.39;102014.25;5035994;28;20033;-70
2022/07/09 11:15:20;;;;;;;8.98;1.45;;;;;;;21.61;53.25;102016.53;5036322;28;20111;-71
2022/07/09 11:18:00;;;;;;;5.75;1.77;;;;;;;22.18;52.44;102007.06;5035712;28;20428;-71
2022/07/09 11:20:27;;;;;;;7.38;2.13;;;;;;;22.20;51.70;102015.97;5036076;28;20056;-72
2022/07/09 11:22:56;;;;;;;6.57;1.73;;;;;;;21.98;51.59;102017.16;5035177;28;20032;-72
2022/07/09 11:25:23;;;;;;;6.50;1.58;;;;;;;21.81;52.03;101995.41;5035643;28;20198;-71
2022/07/09 11:27:49;;;;;;;7.80;1.50;;;;;;;21.61;51.93;102016.53;5035495;28;20025;-72
2022/07/09 11:30:15;;;;;;;4.97;1.48;;;;;;;21.93;50.73;101995.69;5035494;28;20029;-71
2022/07/09 11:32:42;;;;;;;3.60;1.20;;;;;;;22.06;50.37;101997.66;5035128;28;20127;-72
2022/07/09 11:35:08;;;;;;;6.07;1.45;;;;;;;22.46;49.65;101982.91;5035239;28;20031;-72
2022/07/09 11:37:33;;;;;;;3.50;1.20;;;;;;;21.99;49.99;101996.78;5034904;28;20037;-72
2022/07/09 11:39:59;;;;;;;2.05;1.10;;;;;;;21.71;51.03;102000.44;5035226;28;20059;-70